createdAt,value
2022-10-23T00:01:18.636Z,22.02
2022-10-23T00:03:46.454Z,20.98
2022-10-23T00:06:14.145Z,20.23
2022-10-23T00:08:42.001Z,22.40
2022-10-23T00:11:11.895Z,20.63
2022-10-23T00:13:39.532Z,20.60
2022-10-23T00:16:07.316Z,23.20
2022-10-23T00:18:34.039Z,21.92
2022-10-23T00:21:01.514Z,19.95
2022-10-23T00:23:28.145Z,21.38
2022-10-23T00:25:54.788Z,22.13
2022-10-23T00:28:21.796Z,25.60
2022-10-23T00:30:48.469Z,26.55
2022-10-23T00:33:15.342Z,24.33
2022-10-23T00:35:42.785Z,30.85
2022-10-23T00:38:10.264Z,27.42
2022-10-23T00:40:38.175Z,24.45
2022-10-23T00:43:05.399Z,26.95
2022-10-23T00:45:33.485Z,27.52
2022-10-23T00:48:04.215Z,22.02
2022-10-23T00:50:33.359Z,21.42
2022-10-23T00:53:03.993Z,20.73
2022-10-23T00:55:32.359Z,14.90
2022-10-23T00:57:59.294Z,12.45
2022-10-23T01:00:28.671Z,10.63
2022-10-23T01:02:56.996Z,9.60
2022-10-23T01:05:30.067Z,9.55
2022-10-23T01:08:04.807Z,10.77
2022-10-23T01:10:45.731Z,17.83
2022-10-23T01:13:17.191Z,19.10
2022-10-23T01:16:11.174Z,18.23
2022-10-23T01:19:02.668Z,17.80
2022-10-23T01:21:38.999Z,20.33
2022-10-23T01:24:51.713Z,21.67
2022-10-23T01:27:26.486Z,22.85
2022-10-23T01:30:09.049Z,23.30
2022-10-23T01:32:42.572Z,23.40
2022-10-23T01:35:16.953Z,22.55
2022-10-23T01:37:47.868Z,23.80
2022-10-23T01:40:34.426Z,24.25
2022-10-23T01:43:16.592Z,21.65
2022-10-23T01:45:51.178Z,22.42
2022-10-23T01:48:22.409Z,22.90
2022-10-23T01:50:50.770Z,20.55
2022-10-23T01:53:19.545Z,19.83
2022-10-23T01:55:47.516Z,20.38
2022-10-23T01:58:16.256Z,20.15
2022-10-23T02:00:45.340Z,21.30
2022-10-23T02:03:15.988Z,20.85
2022-10-23T02:05:43.514Z,22.27
2022-10-23T02:08:10.362Z,22.40
2022-10-23T02:10:55.698Z,23.17
2022-10-23T02:13:34.168Z,23.48
2022-10-23T02:16:16.648Z,24.30
2022-10-23T02:24:02.669Z,24.20
2022-10-23T02:26:42.549Z,22.58
2022-10-23T02:29:22.733Z,24.17
2022-10-23T02:31:49.466Z,24.67
2022-10-23T02:34:16.579Z,22.88
2022-10-23T02:36:43.542Z,23.08
2022-10-23T02:39:10.196Z,23.15
2022-10-23T02:41:45.766Z,24.08
2022-10-23T02:44:33.553Z,26.15
2022-10-23T02:47:21.702Z,23.90
2022-10-23T02:49:58.638Z,22.50
2022-10-23T02:52:44.955Z,22.63
2022-10-23T02:55:41.542Z,20.50
2022-10-23T02:58:17.939Z,20.88
2022-10-23T03:00:50.852Z,22.70
2022-10-23T03:03:22.475Z,21.00
2022-10-23T03:05:49.267Z,22.23
2022-10-23T03:08:15.978Z,20.58
2022-10-23T03:10:43.242Z,22.00
2022-10-23T03:13:11.099Z,19.60
2022-10-23T03:15:37.801Z,18.63
2022-10-23T03:18:04.577Z,17.20
2022-10-23T03:20:31.217Z,15.75
2022-10-23T03:22:57.841Z,14.82
2022-10-23T03:25:24.403Z,13.93
2022-10-23T03:27:51.098Z,11.25
2022-10-23T03:30:18.055Z,10.32
2022-10-23T03:32:44.755Z,11.20
2022-10-23T03:35:11.674Z,10.48
2022-10-23T03:37:38.452Z,11.18
2022-10-23T03:40:05.837Z,11.90
2022-10-23T03:42:32.458Z,10.35
2022-10-23T03:44:59.114Z,9.68
2022-10-23T03:47:25.740Z,10.27
2022-10-23T03:49:52.369Z,16.65
2022-10-23T03:52:19.118Z,17.75
2022-10-23T03:54:45.838Z,15.82
2022-10-23T03:57:12.770Z,17.45
2022-10-23T03:59:39.450Z,15.27
2022-10-23T04:02:06.192Z,11.07
2022-10-23T04:04:32.857Z,10.23
2022-10-23T04:06:59.508Z,10.38
2022-10-23T04:09:26.384Z,9.55
2022-10-23T04:11:53.037Z,8.20
2022-10-23T04:14:19.676Z,8.93
2022-10-23T04:16:46.428Z,7.80
2022-10-23T04:19:13.059Z,7.60
2022-10-23T04:21:39.680Z,8.00
2022-10-23T04:24:06.675Z,7.60
2022-10-23T04:26:33.482Z,7.75
2022-10-23T04:29:00.130Z,7.40
2022-10-23T04:31:27.270Z,7.95
2022-10-23T04:33:54.357Z,6.90
2022-10-23T04:36:21.066Z,7.35
2022-10-23T04:38:48.205Z,7.38
2022-10-23T04:41:14.845Z,7.20
2022-10-23T04:43:41.752Z,6.47
2022-10-23T04:46:08.380Z,6.18
2022-10-23T04:48:35.183Z,6.78
2022-10-23T04:51:04.587Z,6.30
2022-10-23T04:53:31.811Z,5.93
2022-10-23T04:55:59.684Z,6.93
2022-10-23T04:58:28.167Z,7.63
2022-10-23T05:00:55.394Z,7.10
2022-10-23T05:03:23.469Z,5.97
2022-10-23T05:05:55.244Z,6.65
2022-10-23T05:08:22.879Z,5.70
2022-10-23T05:10:50.217Z,5.30
2022-10-23T05:13:19.758Z,5.15
2022-10-23T05:15:48.666Z,5.60
2022-10-23T05:18:45.708Z,6.03
2022-10-23T05:21:18.417Z,5.95
2022-10-23T05:23:49.078Z,5.50
2022-10-23T05:26:15.682Z,5.25
2022-10-23T05:28:42.354Z,6.18
2022-10-23T05:31:09.865Z,6.40
2022-10-23T05:33:37.458Z,5.45
2022-10-23T05:36:04.749Z,5.20
2022-10-23T05:38:34.863Z,5.18
2022-10-23T05:41:01.741Z,4.97
2022-10-23T05:43:31.232Z,5.18
2022-10-23T05:45:59.429Z,5.88
2022-10-23T05:48:41.367Z,5.50
2022-10-23T05:51:10.408Z,5.70
2022-10-23T05:53:40.096Z,5.60
2022-10-23T05:58:35.828Z,5.15
2022-10-23T06:01:08.838Z,4.80
2022-10-23T06:03:36.989Z,5.55
2022-10-23T06:06:04.195Z,5.82
2022-10-23T06:08:31.782Z,5.13
2022-10-23T06:10:58.761Z,6.07
2022-10-23T06:13:25.470Z,6.03
2022-10-23T06:15:52.046Z,5.85
2022-10-23T06:18:19.128Z,6.90
2022-10-23T06:20:45.781Z,5.68
2022-10-23T06:23:12.451Z,5.55
2022-10-23T06:25:39.013Z,6.75
2022-10-23T06:28:05.636Z,6.15
2022-10-23T06:30:32.568Z,5.82
2022-10-23T06:33:02.136Z,5.70
2022-10-23T06:35:31.375Z,5.65
2022-10-23T06:37:57.994Z,5.68
2022-10-23T06:40:24.605Z,5.78
2022-10-23T06:42:51.633Z,6.10
2022-10-23T06:45:18.302Z,5.30
2022-10-23T06:47:45.323Z,5.45
2022-10-23T06:50:15.348Z,5.55
2022-10-23T06:52:46.860Z,5.40
2022-10-23T06:55:14.338Z,6.05
2022-10-23T06:57:41.379Z,6.50
2022-10-23T07:00:08.868Z,4.78
2022-10-23T07:02:35.731Z,5.07
2022-10-23T07:05:02.455Z,4.85
2022-10-23T07:07:32.922Z,5.85
2022-10-23T07:09:59.574Z,6.10
2022-10-23T07:12:26.162Z,6.60
2022-10-23T07:14:52.812Z,5.57
2022-10-23T07:17:19.560Z,5.75
2022-10-23T07:19:49.736Z,5.57
2022-10-23T07:22:16.436Z,4.53
2022-10-23T07:24:43.328Z,5.57
2022-10-23T07:27:09.979Z,4.72
2022-10-23T07:29:37.059Z,4.78
2022-10-23T07:32:04.587Z,5.13
2022-10-23T07:34:32.221Z,4.95
2022-10-23T07:36:59.213Z,5.10
2022-10-23T07:39:25.903Z,5.22
2022-10-23T07:41:52.813Z,6.45
2022-10-23T07:44:21.071Z,5.47
2022-10-23T07:46:49.730Z,5.78
2022-10-23T07:49:16.597Z,5.00
2022-10-23T07:51:46.417Z,4.95
2022-10-23T07:54:15.771Z,5.75
2022-10-23T07:56:42.943Z,5.80
2022-10-23T07:59:12.937Z,4.97
2022-10-23T08:01:40.178Z,4.53
2022-10-23T08:04:07.229Z,4.70
2022-10-23T08:06:35.449Z,5.35
2022-10-23T08:09:06.199Z,4.55
2022-10-23T08:11:35.811Z,4.78
2022-10-23T08:14:04.941Z,4.90
2022-10-23T08:16:33.117Z,4.07
2022-10-23T08:19:00.297Z,3.95
2022-10-23T08:21:27.562Z,3.67
2022-10-23T08:23:55.662Z,4.18
2022-10-23T08:26:23.173Z,4.53
2022-10-23T08:28:50.405Z,4.43
2022-10-23T08:31:19.454Z,4.55
2022-10-23T08:33:46.664Z,4.97
2022-10-23T08:36:20.918Z,4.10
2022-10-23T08:38:47.858Z,4.10
2022-10-23T08:41:25.514Z,3.55
2022-10-23T08:44:02.701Z,3.65
2022-10-23T08:46:34.986Z,3.85
2022-10-23T08:49:14.968Z,3.53
2022-10-23T08:51:44.847Z,4.65
2022-10-23T08:54:18.861Z,3.88
2022-10-23T08:56:52.966Z,3.88
2022-10-23T08:59:40.313Z,3.83
2022-10-23T09:02:24.885Z,3.08
2022-10-23T09:04:54.718Z,3.92
2022-10-23T09:07:27.428Z,3.50
2022-10-23T09:09:58.317Z,3.42
2022-10-23T09:12:29.101Z,2.53
2022-10-23T09:15:07.268Z,3.17
2022-10-23T09:17:39.280Z,2.67
2022-10-23T09:22:33.089Z,2.80
2022-10-23T09:24:59.767Z,3.00
2022-10-23T09:27:26.608Z,2.92
2022-10-23T09:29:55.314Z,2.72
2022-10-23T09:32:37.780Z,2.80
2022-10-23T09:35:05.408Z,3.08
2022-10-23T09:37:35.971Z,3.30
2022-10-23T09:40:12.020Z,2.78
2022-10-23T09:42:38.701Z,2.90
2022-10-23T09:45:24.716Z,3.63
2022-10-23T09:47:51.570Z,2.60
2022-10-23T09:50:21.711Z,2.33
2022-10-23T09:52:54.472Z,2.13
2022-10-23T09:55:24.964Z,2.53
2022-10-23T09:57:53.997Z,3.22
2022-10-23T10:00:22.801Z,2.50
2022-10-23T10:03:04.463Z,2.88
2022-10-23T10:05:39.133Z,3.47
2022-10-23T10:08:15.352Z,2.20
2022-10-23T10:10:49.521Z,2.80
2022-10-23T10:13:36.668Z,2.20
2022-10-23T10:16:15.329Z,2.03
2022-10-23T10:18:51.631Z,2.00
2022-10-23T10:21:53.222Z,1.90
2022-10-23T10:24:34.646Z,2.07
2022-10-23T10:27:43.417Z,2.20
2022-10-23T10:30:15.915Z,2.78
2022-10-23T10:33:15.893Z,2.70
2022-10-23T10:35:51.499Z,1.98
2022-10-23T10:38:28.501Z,2.10
2022-10-23T10:41:29.243Z,2.15
2022-10-23T10:44:05.484Z,1.80
2022-10-23T10:46:53.714Z,2.20
2022-10-23T10:49:44.069Z,2.08
2022-10-23T10:52:30.422Z,2.60
2022-10-23T10:55:11.889Z,2.38
2022-10-23T10:57:43.390Z,1.95
2022-10-23T11:00:17.343Z,1.45
2022-10-23T11:02:48.845Z,2.05
2022-10-23T11:05:38.293Z,1.75
2022-10-23T11:08:25.132Z,2.00
2022-10-23T11:10:58.011Z,1.58
2022-10-23T11:13:29.146Z,2.30
2022-10-23T11:16:01.213Z,2.40
2022-10-23T11:18:30.946Z,2.30
2022-10-23T11:21:08.506Z,1.90
2022-10-23T11:24:05.264Z,2.53
2022-10-23T11:27:12.048Z,1.92
2022-10-23T11:30:20.251Z,2.05
2022-10-23T11:32:57.973Z,2.05
2022-10-23T11:35:34.044Z,1.70
2022-10-23T11:38:38.513Z,1.77
2022-10-23T11:41:19.925Z,1.58
2022-10-23T11:44:01.654Z,1.88
2022-10-23T11:46:37.259Z,1.55
2022-10-23T11:49:06.574Z,1.90
2022-10-23T11:51:39.923Z,1.80
2022-10-23T11:54:15.614Z,1.42
2022-10-23T11:57:11.855Z,1.63
2022-10-23T11:59:47.437Z,1.50
2022-10-23T12:02:37.602Z,1.90
2022-10-23T12:05:25.537Z,1.65
2022-10-23T12:07:57.865Z,2.00
2022-10-23T12:10:33.678Z,1.50
2022-10-23T12:13:06.561Z,1.80
2022-10-23T12:15:36.327Z,1.70
2022-10-23T12:18:16.409Z,1.50
2022-10-23T12:20:57.408Z,1.48
2022-10-23T12:23:45.894Z,1.25
2022-10-23T12:26:45.754Z,1.52
2022-10-23T12:29:28.399Z,1.60
2022-10-23T12:32:03.978Z,1.35
2022-10-23T12:34:55.097Z,1.30
2022-10-23T12:37:36.681Z,1.17
2022-10-23T12:40:08.950Z,1.17
2022-10-23T12:42:37.432Z,1.38
2022-10-23T12:45:19.340Z,1.33
2022-10-23T12:47:47.423Z,1.35
2022-10-23T12:50:28.547Z,1.83
2022-10-23T12:53:01.219Z,2.20
2022-10-23T12:55:33.620Z,1.55
2022-10-23T12:58:02.518Z,1.50
2022-10-23T13:00:29.432Z,0.82
2022-10-23T13:03:04.451Z,1.35
2022-10-23T13:05:32.603Z,1.08
2022-10-23T13:08:02.867Z,1.10
2022-10-23T13:10:31.030Z,1.40
2022-10-23T13:13:06.097Z,1.10
2022-10-23T13:15:41.567Z,1.70
2022-10-23T13:18:14.216Z,1.95
2022-10-23T13:20:57.063Z,1.20
2022-10-23T13:23:32.602Z,1.80
2022-10-23T13:26:02.171Z,1.10
2022-10-23T13:28:42.537Z,1.15
2022-10-23T13:31:12.396Z,1.27
2022-10-23T13:33:47.710Z,1.35
2022-10-23T13:36:17.656Z,1.35
2022-10-23T13:39:02.697Z,1.48
2022-10-23T13:41:38.310Z,1.17
2022-10-23T13:44:05.147Z,1.10
2022-10-23T13:46:33.170Z,1.30
2022-10-23T13:48:59.834Z,0.90
2022-10-23T13:51:29.599Z,1.42
2022-10-23T13:53:57.312Z,1.40
2022-10-23T13:56:26.675Z,1.30
2022-10-23T13:58:53.947Z,1.25
2022-10-23T14:01:28.605Z,1.27
2022-10-23T14:03:57.441Z,1.90
2022-10-23T14:06:25.095Z,1.70
2022-10-23T14:08:52.597Z,1.55
2022-10-23T14:11:20.659Z,1.25
2022-10-23T14:13:48.394Z,1.42
2022-10-23T14:16:17.655Z,1.50
2022-10-23T14:18:45.267Z,1.35
2022-10-23T14:21:15.930Z,1.58
2022-10-23T14:23:42.929Z,1.50
2022-10-23T14:26:12.490Z,1.92
2022-10-23T14:28:39.176Z,1.73
2022-10-23T14:31:08.819Z,2.42
2022-10-23T14:33:35.649Z,1.75
2022-10-23T14:36:02.479Z,1.60
2022-10-23T14:38:29.194Z,1.50
2022-10-23T14:40:55.894Z,1.60
2022-10-23T14:43:23.786Z,1.55
2022-10-23T14:45:50.413Z,1.55
2022-10-23T14:48:17.243Z,1.80
2022-10-23T14:50:46.683Z,2.05
2022-10-23T14:53:14.288Z,1.60
2022-10-23T14:55:41.447Z,2.17
2022-10-23T14:58:08.511Z,2.78
2022-10-23T15:00:35.099Z,2.10
2022-10-23T15:03:01.630Z,2.10
2022-10-23T15:05:28.502Z,2.67
2022-10-23T15:07:56.540Z,2.60
2022-10-23T15:10:23.110Z,2.20
2022-10-23T15:12:49.967Z,2.47
2022-10-23T15:15:16.678Z,1.80
2022-10-23T15:17:43.774Z,2.25
2022-10-23T15:20:10.784Z,1.88
2022-10-23T15:22:37.538Z,1.52
2022-10-23T15:25:04.688Z,1.40
2022-10-23T15:27:31.411Z,1.60
2022-10-23T15:29:58.335Z,1.60
2022-10-23T15:32:24.929Z,1.70
2022-10-23T15:34:52.499Z,1.65
2022-10-23T15:37:19.200Z,1.85
2022-10-23T15:39:46.263Z,1.58
2022-10-23T15:42:12.935Z,1.80
2022-10-23T15:44:41.722Z,1.60
2022-10-23T15:47:08.346Z,2.47
2022-10-23T15:49:35.443Z,2.80
2022-10-23T15:52:04.110Z,1.90
2022-10-23T15:54:32.890Z,1.83
2022-10-23T15:57:00.401Z,1.70
2022-10-23T15:59:27.879Z,2.33
2022-10-23T16:01:55.756Z,2.03
2022-10-23T16:04:22.740Z,2.53
2022-10-23T16:06:49.667Z,2.63
2022-10-23T16:09:16.812Z,3.00
2022-10-23T16:11:44.343Z,2.40
2022-10-23T16:14:14.449Z,2.42
2022-10-23T16:16:41.368Z,2.97
2022-10-23T16:19:08.055Z,2.30
2022-10-23T16:21:36.671Z,2.95
2022-10-23T16:24:06.332Z,2.50
2022-10-23T16:26:34.691Z,3.75
2022-10-23T16:29:03.941Z,2.17
2022-10-23T16:31:30.829Z,1.90
2022-10-23T16:33:59.605Z,3.10
2022-10-23T16:36:26.254Z,2.03
2022-10-23T16:38:52.879Z,1.50
2022-10-23T16:41:19.487Z,2.10
2022-10-23T16:43:46.146Z,2.33
2022-10-23T16:46:17.219Z,2.20
2022-10-23T16:48:44.159Z,2.05
2022-10-23T16:51:13.752Z,2.30
2022-10-23T16:53:41.274Z,3.05
2022-10-23T16:56:10.302Z,3.95
2022-10-23T16:58:37.676Z,3.92
2022-10-23T17:01:07.798Z,5.07
2022-10-23T17:03:39.492Z,4.65
2022-10-23T17:06:11.159Z,4.68
2022-10-23T17:08:38.680Z,4.00
2022-10-23T17:11:16.109Z,3.78
2022-10-23T17:13:45.867Z,4.35
2022-10-23T17:16:21.675Z,3.47
2022-10-23T17:18:48.500Z,4.30
2022-10-23T17:21:17.105Z,4.35
2022-10-23T17:23:45.097Z,3.88
2022-10-23T17:26:15.203Z,3.28
2022-10-23T17:28:43.871Z,3.60
2022-10-23T17:31:15.767Z,3.47
2022-10-23T17:33:43.568Z,3.67
2022-10-23T17:36:12.750Z,3.33
2022-10-23T17:38:40.599Z,3.05
2022-10-23T17:41:08.656Z,3.30
2022-10-23T17:43:36.467Z,2.70
2022-10-23T17:46:05.832Z,2.75
2022-10-23T17:48:33.076Z,2.53
2022-10-23T17:51:09.276Z,2.40
2022-10-23T17:53:38.289Z,2.08
2022-10-23T17:56:07.790Z,3.15
2022-10-23T17:58:35.699Z,2.08
2022-10-23T18:01:11.750Z,4.38
2022-10-23T18:03:39.957Z,2.35
2022-10-23T18:06:24.506Z,2.90
2022-10-23T18:08:55.239Z,3.15
2022-10-23T18:11:31.753Z,2.53
2022-10-23T18:14:02.122Z,2.83
2022-10-23T18:16:29.210Z,2.03
2022-10-23T18:18:59.896Z,3.35
2022-10-23T18:21:28.414Z,2.55
2022-10-23T18:23:55.776Z,2.70
2022-10-23T18:26:25.327Z,3.40
2022-10-23T18:28:57.127Z,3.17
2022-10-23T18:31:25.378Z,2.95
2022-10-23T18:34:01.650Z,3.03
2022-10-23T18:36:31.376Z,3.17
2022-10-23T18:38:58.632Z,3.60
2022-10-23T18:41:25.858Z,2.83
2022-10-23T18:43:54.027Z,3.88
2022-10-23T18:46:21.388Z,3.42
2022-10-23T18:48:50.948Z,2.70
2022-10-23T18:51:23.566Z,3.33
2022-10-23T18:53:51.460Z,3.30
2022-10-23T18:56:24.905Z,3.47
2022-10-23T18:58:54.788Z,3.33
2022-10-23T19:01:24.204Z,3.58
2022-10-23T19:03:51.194Z,3.45
2022-10-23T19:06:19.225Z,3.47
2022-10-23T19:08:46.591Z,4.35
2022-10-23T19:11:15.787Z,4.25
2022-10-23T19:13:43.085Z,4.93
2022-10-23T19:16:18.354Z,5.18
2022-10-23T19:18:49.390Z,9.25
2022-10-23T19:21:18.965Z,7.63
2022-10-23T19:23:46.415Z,7.72
2022-10-23T19:26:14.026Z,7.85
2022-10-23T19:28:43.784Z,6.75
2022-10-23T19:31:11.458Z,6.28
2022-10-23T19:33:39.179Z,6.00
2022-10-23T19:36:11.111Z,4.80
2022-10-23T19:38:41.345Z,6.30
2022-10-23T19:41:09.079Z,5.30
2022-10-23T19:43:37.798Z,7.10
2022-10-23T19:46:09.391Z,4.78
2022-10-23T19:48:42.453Z,5.25
2022-10-23T19:51:09.502Z,4.93
2022-10-23T19:53:36.534Z,5.85
2022-10-23T19:56:06.880Z,5.03
2022-10-23T19:58:33.582Z,5.70
2022-10-23T20:01:08.029Z,5.75
2022-10-23T20:03:35.166Z,5.57
2022-10-23T20:06:01.854Z,5.22
2022-10-23T20:08:32.616Z,4.80
2022-10-23T20:11:01.832Z,5.05
2022-10-23T20:13:28.703Z,5.55
2022-10-23T20:15:55.424Z,5.93
2022-10-23T20:18:22.073Z,6.38
2022-10-23T20:20:48.930Z,5.90
2022-10-23T20:23:15.611Z,5.93
2022-10-23T20:25:42.383Z,5.97
2022-10-23T20:28:11.582Z,6.05
2022-10-23T20:30:42.598Z,6.28
2022-10-23T20:33:09.570Z,6.13
2022-10-23T20:35:42.906Z,6.05
2022-10-23T20:38:11.691Z,6.03
2022-10-23T20:40:38.343Z,6.70
2022-10-23T20:43:05.112Z,5.82
2022-10-23T20:45:31.867Z,6.57
2022-10-23T20:47:58.498Z,6.50
2022-10-23T20:50:25.205Z,6.90
2022-10-23T20:52:51.867Z,6.53
2022-10-23T20:55:19.541Z,6.07
2022-10-23T20:57:46.629Z,6.30
2022-10-23T21:00:13.648Z,5.95
2022-10-23T21:02:40.540Z,7.18
2022-10-23T21:05:07.816Z,8.75
2022-10-23T21:07:34.537Z,11.68
2022-10-23T21:10:03.998Z,11.07
2022-10-23T21:12:30.883Z,10.30
2022-10-23T21:14:58.515Z,11.20
2022-10-23T21:17:25.394Z,10.85
2022-10-23T21:19:52.085Z,12.05
2022-10-23T21:22:18.808Z,12.07
2022-10-23T21:24:45.629Z,11.23
2022-10-23T21:27:12.453Z,11.40
2022-10-23T21:29:39.222Z,10.32
2022-10-23T21:32:06.089Z,10.48
2022-10-23T21:34:32.801Z,10.48
2022-10-23T21:37:12.615Z,9.00
2022-10-23T21:39:42.031Z,9.60
2022-10-23T21:42:08.969Z,10.00
2022-10-23T21:44:35.612Z,9.68
2022-10-23T21:47:02.284Z,7.97
2022-10-23T21:49:29.202Z,8.13
2022-10-23T21:51:55.912Z,8.70
2022-10-23T21:54:23.004Z,8.35
2022-10-23T21:56:53.970Z,8.10
2022-10-23T21:59:24.355Z,8.50
2022-10-23T22:01:52.168Z,7.28
2022-10-23T22:04:20.667Z,6.85
2022-10-23T22:06:51.347Z,7.57
2022-10-23T22:09:19.911Z,6.97
2022-10-23T22:11:48.186Z,7.30
2022-10-23T22:14:14.815Z,7.85
2022-10-23T22:16:42.280Z,7.72
2022-10-23T22:19:11.822Z,9.60
2022-10-23T22:21:38.825Z,8.43
2022-10-23T22:24:05.977Z,7.93
2022-10-23T22:26:35.897Z,8.57
2022-10-23T22:29:06.658Z,7.68
2022-10-23T22:31:35.326Z,6.20
2022-10-23T22:34:13.253Z,8.20
2022-10-23T22:36:50.508Z,7.40
2022-10-23T22:39:17.224Z,8.32
2022-10-23T22:41:43.986Z,7.13
2022-10-23T22:44:11.740Z,6.22
2022-10-23T22:46:38.803Z,6.70
2022-10-23T22:51:32.051Z,7.13
2022-10-23T22:53:59.238Z,7.88
2022-10-23T22:56:28.720Z,6.65
2022-10-23T22:58:56.640Z,6.97
2022-10-23T23:01:35.649Z,5.95
2022-10-23T23:04:13.792Z,5.80
2022-10-23T23:06:49.190Z,6.85
2022-10-23T23:09:18.037Z,7.18
2022-10-23T23:11:51.751Z,7.63
2022-10-23T23:14:23.203Z,7.07
2022-10-23T23:16:52.212Z,7.72
2022-10-23T23:19:19.272Z,7.45
2022-10-23T23:21:45.902Z,7.35
2022-10-23T23:24:12.749Z,7.35
2022-10-23T23:26:39.717Z,7.22
2022-10-23T23:29:06.510Z,8.35
2022-10-23T23:31:33.674Z,7.60
2022-10-23T23:34:01.047Z,8.05
2022-10-23T23:36:28.259Z,8.18
2022-10-23T23:38:57.070Z,7.22
2022-10-23T23:41:25.064Z,7.20
2022-10-23T23:43:54.152Z,7.90
2022-10-23T23:46:22.220Z,6.78
2022-10-23T23:48:49.858Z,7.50
2022-10-23T23:51:22.431Z,7.40
2022-10-23T23:53:50.383Z,7.68
2022-10-23T23:56:17.849Z,7.88
2022-10-23T23:58:44.663Z,8.02
